createdAt,value
2019-05-17T00:00:39.190Z,100115.98
2019-05-17T00:02:17.330Z,100116.80
2019-05-17T00:03:52.717Z,100118.74
2019-05-17T00:05:30.158Z,100111.83
2019-05-17T00:07:07.813Z,100112.66
2019-05-17T00:08:43.372Z,100107.95
2019-05-17T00:10:19.634Z,100111.00
2019-05-17T00:11:56.850Z,100110.71
2019-05-17T00:13:33.350Z,100105.19
2019-05-17T00:15:09.177Z,100097.47
2019-05-17T00:16:46.946Z,100101.90
2019-05-17T00:18:22.589Z,100100.81
2019-05-17T00:19:58.836Z,100098.86
2019-05-17T00:21:36.784Z,100094.43
2019-05-17T00:23:12.362Z,100091.95
2019-05-17T00:24:47.953Z,100090.02
2019-05-17T00:26:24.213Z,100089.75
2019-05-17T00:27:59.758Z,100092.52
2019-05-17T00:29:37.112Z,100086.99
2019-05-17T00:31:12.827Z,100090.02
2019-05-17T00:32:49.364Z,100089.77
2019-05-17T00:34:27.069Z,100086.16
2019-05-17T00:36:03.212Z,100080.09
2019-05-17T00:37:38.785Z,100085.63
2019-05-17T00:39:16.710Z,100081.20
2019-05-17T00:40:52.410Z,100077.05
2019-05-17T00:42:28.937Z,100077.87
2019-05-17T00:44:06.315Z,100078.16
2019-05-17T00:45:42.907Z,100074.30
2019-05-17T00:47:18.432Z,100070.69
2019-05-17T00:48:57.135Z,100073.45
2019-05-17T00:50:31.942Z,100069.59
2019-05-17T00:52:08.223Z,100068.21
2019-05-17T00:53:43.740Z,100072.36
2019-05-17T00:55:20.131Z,100073.73
2019-05-17T00:56:56.689Z,100064.63
2019-05-17T00:58:33.104Z,100067.39
2019-05-17T01:00:09.637Z,100067.68
2019-05-17T01:01:46.841Z,100067.12
2019-05-17T01:03:22.849Z,100064.35
2019-05-17T01:04:59.098Z,100067.94
2019-05-17T01:06:34.637Z,100068.78
2019-05-17T01:08:11.009Z,100067.41
2019-05-17T01:09:47.229Z,100059.93
2019-05-17T01:11:23.696Z,100064.64
2019-05-17T01:12:59.234Z,100061.31
2019-05-17T01:14:38.422Z,100058.02
2019-05-17T01:16:13.951Z,100051.11
2019-05-17T01:17:50.216Z,100052.48
2019-05-17T01:19:27.637Z,100048.59
2019-05-17T01:21:06.431Z,100044.20
2019-05-17T01:22:41.786Z,100038.67
2019-05-17T01:24:18.064Z,100045.58
2019-05-17T01:25:53.633Z,100040.87
2019-05-17T01:27:30.147Z,100045.02
2019-05-17T01:29:06.709Z,100041.69
2019-05-17T01:30:43.221Z,100038.92
2019-05-17T01:32:18.762Z,100032.87
2019-05-17T01:33:56.530Z,100029.53
2019-05-17T01:35:32.281Z,100029.53
2019-05-17T01:37:08.610Z,100027.87
2019-05-17T01:38:46.760Z,100025.11
2019-05-17T01:40:22.830Z,100021.24
2019-05-17T01:41:58.507Z,100025.67
2019-05-17T01:43:36.769Z,100022.09
2019-05-17T01:45:12.248Z,100016.56
2019-05-17T01:46:48.832Z,100015.17
2019-05-17T01:48:24.376Z,100009.65
2019-05-17T01:50:00.661Z,100011.56
2019-05-17T01:51:37.034Z,100016.80
2019-05-17T01:53:13.453Z,100013.22
2019-05-17T01:54:49.062Z,100012.41
2019-05-17T01:56:26.290Z,100007.41
2019-05-17T01:58:02.048Z,100011.02
2019-05-17T01:59:38.800Z,100012.66
2019-05-17T02:01:16.817Z,100013.50
2019-05-17T02:02:53.290Z,100012.12
2019-05-17T02:04:29.096Z,100010.17
2019-05-17T02:06:07.441Z,100009.36
2019-05-17T02:07:42.837Z,100003.83
2019-05-17T02:09:33.812Z,100014.03
2019-05-17T02:10:57.482Z,100014.88
2019-05-17T02:12:33.798Z,100002.98
2019-05-17T02:14:09.592Z,100009.36
2019-05-17T02:15:46.992Z,100001.34
2019-05-17T02:17:22.947Z,100010.45
2019-05-17T02:18:59.234Z,100012.94
2019-05-17T02:20:36.967Z,100008.50
2019-05-17T02:22:13.013Z,100010.17
2019-05-17T02:23:48.561Z,100007.70
2019-05-17T02:25:27.103Z,100001.34
2019-05-17T02:27:02.131Z,100001.61
2019-05-17T02:28:41.328Z,99999.41
2019-05-17T02:30:17.478Z,99998.84
2019-05-17T02:31:54.486Z,100003.55
2019-05-17T02:33:33.164Z,99999.41
2019-05-17T02:35:08.871Z,100000.22
2019-05-17T02:36:44.387Z,99988.35
2019-05-17T02:38:22.441Z,99988.63
2019-05-17T02:40:02.917Z,99986.68
2019-05-17T02:41:35.918Z,99990.54
2019-05-17T02:43:13.266Z,99997.73
2019-05-17T02:44:52.927Z,99991.92
2019-05-17T02:46:26.873Z,99987.78
2019-05-17T02:48:04.172Z,99985.58
2019-05-17T02:49:42.273Z,99986.68
2019-05-17T02:51:18.016Z,99997.73
2019-05-17T02:52:53.828Z,99992.20
2019-05-17T02:54:32.792Z,99996.34
2019-05-17T02:56:07.605Z,99996.91
2019-05-17T02:57:44.006Z,99996.61
2019-05-17T02:59:19.540Z,99995.80
2019-05-17T03:00:55.804Z,99990.27
2019-05-17T03:02:34.154Z,99992.75
2019-05-17T03:04:12.790Z,99996.89
2019-05-17T03:05:46.808Z,99989.70
2019-05-17T03:07:23.437Z,99992.46
2019-05-17T03:08:59.213Z,99981.13
2019-05-17T03:10:35.542Z,99988.88
2019-05-17T03:12:12.910Z,99986.94
2019-05-17T03:13:52.349Z,99994.94
2019-05-17T03:15:27.193Z,99995.50
2019-05-17T03:17:03.755Z,99996.03
2019-05-17T03:18:39.269Z,99999.36
2019-05-17T03:20:16.767Z,99998.27
2019-05-17T03:21:53.550Z,99990.51
2019-05-17T03:23:32.793Z,99993.56
2019-05-17T03:25:08.342Z,99984.98
2019-05-17T03:26:44.617Z,99986.12
2019-05-17T03:28:23.679Z,99991.90
2019-05-17T03:29:58.396Z,99994.13
2019-05-17T03:31:41.981Z,99992.75
2019-05-17T03:33:16.036Z,99991.91
2019-05-17T03:34:55.861Z,99994.14
2019-05-17T03:36:28.786Z,100003.81
2019-05-17T03:38:04.385Z,100001.05
2019-05-17T03:39:42.719Z,99988.90
2019-05-17T03:41:23.733Z,99990.28
2019-05-17T03:42:55.859Z,99998.00
2019-05-17T03:44:33.262Z,99997.44
2019-05-17T03:46:09.358Z,99993.86
2019-05-17T03:47:45.067Z,99999.39
2019-05-17T03:49:22.363Z,100003.25
2019-05-17T03:50:58.145Z,99998.58
2019-05-17T03:52:34.425Z,100000.22
2019-05-17T03:54:13.828Z,100003.27
2019-05-17T03:55:53.757Z,100006.31
2019-05-17T03:57:27.906Z,100012.12
2019-05-17T03:59:04.264Z,100004.66
2019-05-17T04:00:42.613Z,100008.52
2019-05-17T04:02:17.877Z,100003.28
2019-05-17T04:03:53.406Z,99998.57
2019-05-17T04:05:33.080Z,100004.11
2019-05-17T04:07:06.982Z,99994.72
2019-05-17T04:08:43.329Z,99990.86
2019-05-17T04:10:22.801Z,99989.19
2019-05-17T04:11:58.051Z,99988.09
2019-05-17T04:13:33.885Z,99988.91
2019-05-17T04:15:13.381Z,99987.00
2019-05-17T04:16:47.853Z,99986.72
2019-05-17T04:18:24.266Z,99990.30
2019-05-17T04:20:02.942Z,99981.77
2019-05-17T04:21:38.752Z,99983.40
2019-05-17T04:23:14.715Z,99983.97
2019-05-17T04:24:52.552Z,99983.69
2019-05-17T04:26:28.229Z,99984.79
2019-05-17T04:28:04.765Z,99985.92
2019-05-17T04:29:42.553Z,99981.22
2019-05-17T04:31:18.348Z,99981.75
2019-05-17T04:32:54.192Z,99976.23
2019-05-17T04:34:33.558Z,99968.78
2019-05-17T04:36:07.690Z,99966.84
2019-05-17T04:37:45.126Z,99957.73
2019-05-17T04:39:22.632Z,99951.63
2019-05-17T04:40:59.055Z,99945.57
2019-05-17T04:42:34.596Z,99956.09
2019-05-17T04:44:12.822Z,99963.30
2019-05-17T04:45:48.069Z,99961.63
2019-05-17T04:47:24.600Z,99964.12
2019-05-17T04:49:02.814Z,99958.02
2019-05-17T04:50:38.102Z,99956.38
2019-05-17T04:52:14.019Z,99960.25
2019-05-17T04:53:52.994Z,99951.66
2019-05-17T04:55:28.745Z,99959.39
2019-05-17T04:57:05.020Z,99957.72
2019-05-17T04:58:42.951Z,99958.00
2019-05-17T05:00:21.934Z,99969.91
2019-05-17T05:01:57.251Z,99975.69
2019-05-17T05:03:33.534Z,99978.17
2019-05-17T05:05:09.205Z,99981.50
2019-05-17T05:06:46.045Z,99976.52
2019-05-17T05:08:22.427Z,99978.14
2019-05-17T05:09:58.899Z,99977.59
2019-05-17T05:11:50.361Z,99978.96
2019-05-17T05:13:13.397Z,99979.75
2019-05-17T05:14:52.303Z,99972.80
2019-05-17T05:16:28.733Z,99970.83
2019-05-17T05:18:04.266Z,99976.64
2019-05-17T05:19:42.268Z,99982.17
2019-05-17T05:21:18.030Z,99980.81
2019-05-17T05:22:54.297Z,99986.34
2019-05-17T05:24:31.528Z,99976.64
2019-05-17T05:26:07.904Z,99978.81
2019-05-17T05:27:43.694Z,99976.87
2019-05-17T05:29:21.635Z,99972.94
2019-05-17T05:30:58.163Z,99978.73
2019-05-17T05:32:34.462Z,99978.41
2019-05-17T05:34:12.150Z,99976.70
2019-05-17T05:35:47.963Z,99971.71
2019-05-17T05:37:33.803Z,99973.07
2019-05-17T05:39:11.792Z,99971.66
2019-05-17T05:40:47.898Z,99969.66
2019-05-17T05:42:24.456Z,99981.55
2019-05-17T05:44:01.876Z,99977.29
2019-05-17T05:45:38.212Z,99975.25
2019-05-17T05:47:13.742Z,99975.38
2019-05-17T05:48:52.230Z,99977.96
2019-05-17T05:50:27.493Z,99975.58
2019-05-17T05:52:05.159Z,99974.33
2019-05-17T05:53:41.914Z,99980.34
2019-05-17T05:55:18.651Z,99973.31
2019-05-17T05:56:54.205Z,99971.83
2019-05-17T05:58:32.198Z,99977.52
2019-05-17T06:00:12.708Z,99972.91
2019-05-17T06:01:49.152Z,99982.41
2019-05-17T06:03:24.703Z,99983.55
2019-05-17T06:05:01.978Z,99978.80
2019-05-17T06:06:38.515Z,99972.38
2019-05-17T06:08:14.874Z,99969.02
2019-05-17T06:09:51.776Z,99969.25
2019-05-17T06:11:28.160Z,99974.45
2019-05-17T06:13:03.714Z,99968.73
2019-05-17T06:14:41.696Z,99970.84
2019-05-17T06:16:17.351Z,99975.81
2019-05-17T06:17:53.610Z,99971.37
2019-05-17T06:19:31.403Z,99971.35
2019-05-17T06:21:07.138Z,99969.67
2019-05-17T06:22:43.076Z,99969.38
2019-05-17T06:24:19.334Z,99972.74
2019-05-17T06:25:54.843Z,99965.00
2019-05-17T06:27:32.111Z,99965.72
2019-05-17T06:29:07.812Z,99964.81
2019-05-17T06:30:44.358Z,99960.85
2019-05-17T06:32:22.797Z,99970.30
2019-05-17T06:33:59.071Z,99964.72
2019-05-17T06:35:34.655Z,99965.11
2019-05-17T06:37:12.911Z,99968.84
2019-05-17T06:38:48.197Z,99967.50
2019-05-17T06:40:28.195Z,99968.44
2019-05-17T06:42:03.723Z,99969.63
2019-05-17T06:43:41.669Z,99966.09
2019-05-17T06:45:17.757Z,99974.45
2019-05-17T06:46:54.044Z,99972.54
2019-05-17T06:48:31.604Z,99966.96
2019-05-17T06:50:08.379Z,99967.54
2019-05-17T06:51:43.937Z,99969.55
2019-05-17T06:53:21.987Z,99965.74
2019-05-17T06:54:58.398Z,99967.25
2019-05-17T06:56:34.707Z,99963.77
2019-05-17T06:58:11.779Z,99962.81
2019-05-17T06:59:48.201Z,99959.55
2019-05-17T07:01:23.738Z,99958.27
2019-05-17T07:03:00.687Z,99965.56
2019-05-17T07:04:36.425Z,99961.70
2019-05-17T07:06:13.609Z,99951.41
2019-05-17T07:07:49.875Z,99956.49
2019-05-17T07:09:26.313Z,99947.34
2019-05-17T07:11:01.840Z,99941.81
2019-05-17T07:12:53.758Z,99940.73
2019-05-17T07:14:15.346Z,99942.45
2019-05-17T07:15:51.608Z,99930.80
2019-05-17T07:17:27.410Z,99935.59
2019-05-17T07:19:04.002Z,99935.91
2019-05-17T07:20:39.870Z,99934.52
2019-05-17T07:22:17.320Z,99932.31
2019-05-17T07:23:53.835Z,99925.13
2019-05-17T07:25:30.398Z,99930.77
2019-05-17T07:27:06.299Z,99918.27
2019-05-17T07:28:42.572Z,99922.16
2019-05-17T07:30:19.483Z,99918.55
2019-05-17T07:31:55.875Z,99912.69
2019-05-17T07:33:31.810Z,99912.98
2019-05-17T07:35:10.784Z,99908.27
2019-05-17T07:36:46.296Z,99911.69
2019-05-17T07:38:22.646Z,99915.93
2019-05-17T07:40:04.538Z,99910.73
2019-05-17T07:41:36.116Z,99909.56
2019-05-17T07:43:14.679Z,99911.22
2019-05-17T07:44:50.265Z,99898.94
2019-05-17T07:46:25.795Z,99909.77
2019-05-17T07:48:02.885Z,99899.75
2019-05-17T07:49:40.446Z,99898.41
2019-05-17T07:51:16.385Z,99897.59
2019-05-17T07:52:51.930Z,99895.89
2019-05-17T07:54:30.183Z,99901.41
2019-05-17T07:56:05.430Z,99899.38
2019-05-17T07:57:41.715Z,99901.54
2019-05-17T07:59:17.228Z,99901.37
2019-05-17T08:00:53.758Z,99902.22
2019-05-17T08:02:30.824Z,99917.77
2019-05-17T08:04:09.853Z,99897.94
2019-05-17T08:05:44.578Z,99893.58
2019-05-17T08:07:20.914Z,99897.70
2019-05-17T08:08:56.460Z,99891.97
2019-05-17T08:10:33.010Z,99890.94
2019-05-17T08:12:11.056Z,99879.06
2019-05-17T08:13:46.490Z,99888.13
2019-05-17T08:15:22.026Z,99883.46
2019-05-17T08:16:59.909Z,99885.95
2019-05-17T08:18:35.505Z,99886.11
2019-05-17T08:20:13.465Z,99884.80
2019-05-17T08:21:50.216Z,99876.67
2019-05-17T08:23:26.153Z,99879.00
2019-05-17T08:25:02.840Z,99887.17
2019-05-17T08:26:40.384Z,99879.51
2019-05-17T08:28:16.194Z,99876.98
2019-05-17T08:29:52.529Z,99868.59
2019-05-17T08:31:29.525Z,99863.74
2019-05-17T08:33:05.880Z,99867.23
2019-05-17T08:34:41.400Z,99867.42
2019-05-17T08:36:19.979Z,99859.58
2019-05-17T08:37:54.945Z,99857.97
2019-05-17T08:39:31.200Z,99861.03
2019-05-17T08:41:06.726Z,99857.19
2019-05-17T08:42:43.258Z,99856.12
2019-05-17T08:44:19.225Z,99849.52
2019-05-17T08:45:58.426Z,99856.89
2019-05-17T08:47:33.162Z,99844.25
2019-05-17T08:49:09.851Z,99838.50
2019-05-17T08:50:45.536Z,99833.93
2019-05-17T08:52:21.790Z,99835.88
2019-05-17T08:54:00.011Z,99832.42
2019-05-17T08:55:35.559Z,99835.55
2019-05-17T08:57:11.348Z,99843.32
2019-05-17T08:58:49.788Z,99838.98
2019-05-17T09:00:25.194Z,99835.58
2019-05-17T09:02:01.534Z,99833.39
2019-05-17T09:03:37.071Z,99826.59
2019-05-17T09:05:13.579Z,99825.41
2019-05-17T09:06:50.455Z,99830.56
2019-05-17T09:08:26.865Z,99828.95
2019-05-17T09:10:04.124Z,99821.58
2019-05-17T09:11:40.627Z,99829.68
2019-05-17T09:13:16.177Z,99831.89
2019-05-17T09:14:52.430Z,99825.22
2019-05-17T09:16:30.563Z,99819.33
2019-05-17T09:18:06.002Z,99823.34
2019-05-17T09:19:41.522Z,99816.09
2019-05-17T09:21:17.847Z,99817.77
2019-05-17T09:22:53.365Z,99820.73
2019-05-17T09:24:29.985Z,99812.22
2019-05-17T09:26:05.759Z,99815.07
2019-05-17T09:27:42.364Z,99807.66
2019-05-17T09:29:20.006Z,99808.31
2019-05-17T09:30:55.961Z,99805.89
2019-05-17T09:32:31.476Z,99804.97
2019-05-17T09:34:09.630Z,99801.69
2019-05-17T09:35:44.957Z,99812.85
2019-05-17T09:37:22.524Z,99794.28
2019-05-17T09:39:00.092Z,99792.20
2019-05-17T09:40:36.295Z,99792.86
2019-05-17T09:42:11.848Z,99793.75
2019-05-17T09:43:51.254Z,99798.41
2019-05-17T09:45:25.498Z,99804.05
2019-05-17T09:47:01.791Z,99792.15
2019-05-17T09:48:39.500Z,99793.84
2019-05-17T09:50:15.790Z,99797.42
2019-05-17T09:51:51.288Z,99799.09
2019-05-17T09:53:30.481Z,99801.02
2019-05-17T09:55:06.388Z,99791.19
2019-05-17T09:56:42.607Z,99789.94
2019-05-17T09:58:21.414Z,99788.75
2019-05-17T09:59:56.192Z,99790.97
2019-05-17T10:01:31.936Z,99781.61
2019-05-17T10:03:09.789Z,99783.89
2019-05-17T10:04:45.630Z,99787.37
2019-05-17T10:06:21.886Z,99787.76
2019-05-17T10:07:59.875Z,99776.67
2019-05-17T10:09:35.653Z,99776.50
2019-05-17T10:11:12.117Z,99777.63
2019-05-17T10:12:49.669Z,99772.50
2019-05-17T10:14:29.069Z,99774.41
2019-05-17T10:16:03.705Z,99776.66
2019-05-17T10:17:39.317Z,99779.50
2019-05-17T10:19:15.602Z,99797.70
2019-05-17T10:20:51.139Z,99789.36
2019-05-17T10:22:30.367Z,99784.13
2019-05-17T10:24:05.834Z,99784.17
2019-05-17T10:25:42.105Z,99781.48
2019-05-17T10:27:19.507Z,99782.30
2019-05-17T10:28:55.577Z,99782.53
2019-05-17T10:30:31.375Z,99781.28
2019-05-17T10:32:10.479Z,99784.68
2019-05-17T10:33:49.370Z,99779.05
2019-05-17T10:35:25.107Z,99774.94
2019-05-17T10:37:00.608Z,99774.70
2019-05-17T10:38:39.441Z,99776.80
2019-05-17T10:40:14.861Z,99773.67
2019-05-17T10:41:51.183Z,99775.88
2019-05-17T10:43:26.711Z,99775.28
2019-05-17T10:45:06.265Z,99776.23
2019-05-17T10:46:41.783Z,99770.59
2019-05-17T10:48:21.028Z,99768.14
2019-05-17T10:49:55.526Z,99772.70
2019-05-17T10:51:31.781Z,99767.22
2019-05-17T10:53:09.764Z,99773.88
2019-05-17T10:54:45.280Z,99766.30
2019-05-17T10:56:23.485Z,99770.40
2019-05-17T10:58:00.450Z,99769.23
2019-05-17T10:59:36.085Z,99768.99
2019-05-17T11:01:12.444Z,99773.45
2019-05-17T11:02:47.948Z,99772.61
2019-05-17T11:04:25.907Z,99780.12
2019-05-17T11:06:02.448Z,99777.20
2019-05-17T11:07:38.716Z,99771.82
2019-05-17T11:09:14.220Z,99776.25
2019-05-17T11:10:50.852Z,99769.21
2019-05-17T11:12:26.380Z,99770.00
2019-05-17T11:14:02.931Z,99770.01
2019-05-17T11:15:38.723Z,99768.58
2019-05-17T11:17:15.012Z,99768.80
2019-05-17T11:18:50.519Z,99768.77
2019-05-17T11:20:26.919Z,99764.20
2019-05-17T11:22:02.445Z,99760.09
2019-05-17T11:23:38.771Z,99763.15
2019-05-17T11:25:14.608Z,99770.94
2019-05-17T11:26:51.285Z,99766.27
2019-05-17T11:28:27.084Z,99769.19
2019-05-17T11:30:03.336Z,99771.27
2019-05-17T11:31:38.937Z,99769.16
2019-05-17T11:33:15.208Z,99769.79
2019-05-17T11:34:50.733Z,99770.48
2019-05-17T11:36:27.005Z,99763.23
2019-05-17T11:38:02.584Z,99768.28
2019-05-17T11:39:38.842Z,99768.84
2019-05-17T11:41:21.086Z,99762.91
2019-05-17T11:42:52.627Z,99760.14
2019-05-17T11:44:28.158Z,99756.77
2019-05-17T11:46:04.443Z,99759.61
2019-05-17T11:47:41.194Z,99764.66
2019-05-17T11:49:17.448Z,99763.17
2019-05-17T11:50:55.155Z,99757.94
2019-05-17T11:53:08.139Z,99762.78
2019-05-17T11:54:36.377Z,99752.44
2019-05-17T11:56:12.639Z,99746.11
2019-05-17T11:57:48.161Z,99748.10
2019-05-17T11:59:24.411Z,99743.07
2019-05-17T12:01:00.236Z,99745.77
2019-05-17T12:02:36.456Z,99754.41
2019-05-17T12:04:12.004Z,99742.66
2019-05-17T12:05:48.265Z,99748.95
2019-05-17T12:07:23.825Z,99755.43
2019-05-17T12:09:05.230Z,99749.20
2019-05-17T12:10:42.512Z,99744.13
2019-05-17T12:12:18.072Z,99754.07
2019-05-17T12:13:54.397Z,99754.69
2019-05-17T12:15:43.511Z,99743.22
2019-05-17T12:17:08.035Z,99745.03
2019-05-17T12:18:43.582Z,99746.45
2019-05-17T12:20:21.720Z,99745.14
2019-05-17T12:21:57.240Z,99738.62
2019-05-17T12:23:33.484Z,99739.66
2019-05-17T12:25:10.158Z,99744.95
2019-05-17T12:26:47.623Z,99733.35
2019-05-17T12:28:23.279Z,99740.11
2019-05-17T12:29:59.523Z,99730.92
2019-05-17T12:31:35.647Z,99730.26
2019-05-17T12:33:12.853Z,99727.42
2019-05-17T12:34:48.446Z,99726.11
2019-05-17T12:36:25.287Z,99717.31
2019-05-17T12:38:00.822Z,99721.45
2019-05-17T12:39:37.142Z,99720.36
2019-05-17T12:41:12.698Z,99725.09
2019-05-17T12:42:50.567Z,99730.02
2019-05-17T12:44:26.201Z,99715.09
2019-05-17T12:46:02.494Z,99716.05
2019-05-17T12:47:38.086Z,99719.30
2019-05-17T12:49:14.428Z,99716.98
2019-05-17T12:50:50.047Z,99711.44
2019-05-17T12:52:26.364Z,99721.93
2019-05-17T12:54:03.474Z,99710.27
2019-05-17T12:55:39.792Z,99709.27
2019-05-17T12:57:15.332Z,99716.78
2019-05-17T12:58:52.613Z,99713.06
2019-05-17T13:00:28.202Z,99706.39
2019-05-17T13:02:04.452Z,99707.93
2019-05-17T13:03:39.957Z,99712.42
2019-05-17T13:05:17.852Z,99715.58
2019-05-17T13:06:53.458Z,99714.30
2019-05-17T13:08:29.717Z,99710.11
2019-05-17T13:10:07.154Z,99704.58
2019-05-17T13:11:43.534Z,99699.98
2019-05-17T13:13:19.052Z,99702.72
2019-05-17T13:14:56.233Z,99702.45
2019-05-17T13:16:31.774Z,99699.97
2019-05-17T13:18:08.312Z,99706.85
2019-05-17T13:19:43.817Z,99707.39
2019-05-17T13:21:20.120Z,99705.12
2019-05-17T13:22:55.631Z,99700.85
2019-05-17T13:24:31.892Z,99706.55
2019-05-17T13:26:07.416Z,99702.27
2019-05-17T13:27:43.932Z,99699.73
2019-05-17T13:29:19.524Z,99696.27
2019-05-17T13:30:55.782Z,99702.16
2019-05-17T13:32:31.320Z,99700.57
2019-05-17T13:34:09.294Z,99696.59
2019-05-17T13:35:45.090Z,99700.06
2019-05-17T13:37:21.329Z,99695.52
2019-05-17T13:38:56.865Z,99693.44
2019-05-17T13:40:39.322Z,99691.13
2019-05-17T13:42:12.941Z,99682.16
2019-05-17T13:43:50.289Z,99696.54
2019-05-17T13:45:26.944Z,99686.63
2019-05-17T13:47:03.231Z,99680.90
2019-05-17T13:48:38.769Z,99686.44
2019-05-17T13:50:16.571Z,99682.58
2019-05-17T13:51:52.105Z,99680.89
2019-05-17T13:53:28.849Z,99677.44
2019-05-17T13:55:06.759Z,99674.97
2019-05-17T13:56:43.870Z,99676.34
2019-05-17T13:58:19.410Z,99674.63
2019-05-17T13:59:55.695Z,99677.08
2019-05-17T14:01:31.331Z,99670.48
2019-05-17T14:03:07.571Z,99670.45
2019-05-17T14:04:43.836Z,99668.77
2019-05-17T14:06:20.229Z,99669.14
2019-05-17T14:07:56.906Z,99675.27
2019-05-17T14:09:33.170Z,99672.02
2019-05-17T14:11:08.723Z,99669.30
2019-05-17T14:12:45.230Z,99667.70
2019-05-17T14:14:20.887Z,99663.88
2019-05-17T14:15:57.140Z,99663.23
2019-05-17T14:17:32.666Z,99664.92
2019-05-17T14:19:11.380Z,99668.95
2019-05-17T14:20:46.573Z,99663.34
2019-05-17T14:22:22.849Z,99664.28
2019-05-17T14:23:58.472Z,99660.30
2019-05-17T14:25:36.648Z,99654.91
2019-05-17T14:27:12.146Z,99658.53
2019-05-17T14:28:48.413Z,99658.45
2019-05-17T14:30:24.132Z,99653.41
2019-05-17T14:32:00.391Z,99652.81
2019-05-17T14:33:37.714Z,99663.87
2019-05-17T14:35:14.617Z,99656.97
2019-05-17T14:36:50.422Z,99650.79
2019-05-17T14:38:26.671Z,99655.48
2019-05-17T14:40:08.489Z,99656.33
2019-05-17T14:41:47.712Z,99650.34
2019-05-17T14:43:23.223Z,99647.05
2019-05-17T14:45:00.578Z,99643.78
2019-05-17T14:46:36.170Z,99640.38
2019-05-17T14:48:14.054Z,99653.95
2019-05-17T14:49:51.249Z,99651.13
2019-05-17T14:51:30.250Z,99640.72
2019-05-17T14:53:06.000Z,99644.00
2019-05-17T14:54:42.263Z,99642.82
2019-05-17T14:56:17.809Z,99642.94
2019-05-17T14:57:54.066Z,99643.61
2019-05-17T14:59:29.645Z,99630.16
2019-05-17T15:01:06.081Z,99637.39
2019-05-17T15:02:41.632Z,99635.65
2019-05-17T15:04:17.897Z,99629.73
2019-05-17T15:05:53.500Z,99633.61
2019-05-17T15:07:29.843Z,99631.58
2019-05-17T15:09:07.439Z,99629.38
2019-05-17T15:10:44.131Z,99624.36
2019-05-17T15:12:28.405Z,99629.02
2019-05-17T15:14:01.620Z,99633.47
2019-05-17T15:15:37.211Z,99630.80
2019-05-17T15:17:13.561Z,99626.69
2019-05-17T15:18:50.497Z,99632.82
2019-05-17T15:20:26.791Z,99636.11
2019-05-17T15:22:02.470Z,99631.66
2019-05-17T15:23:38.847Z,99639.38
2019-05-17T15:25:14.394Z,99636.56
2019-05-17T15:27:05.004Z,99631.31
2019-05-17T15:28:28.613Z,99633.63
2019-05-17T15:30:06.595Z,99626.61
2019-05-17T15:31:42.153Z,99630.71
2019-05-17T15:33:18.481Z,99641.61
2019-05-17T15:34:54.031Z,99624.64
2019-05-17T15:36:30.588Z,99619.82
2019-05-17T15:38:06.158Z,99617.12
2019-05-17T15:39:42.472Z,99619.69
2019-05-17T15:41:18.287Z,99612.43
2019-05-17T15:42:54.549Z,99617.34
2019-05-17T15:44:30.139Z,99612.89
2019-05-17T15:46:06.431Z,99625.03
2019-05-17T15:47:42.043Z,99615.67
2019-05-17T15:49:18.323Z,99615.43
2019-05-17T15:50:57.321Z,99609.69
2019-05-17T15:52:34.744Z,99608.64
2019-05-17T15:54:10.271Z,99607.34
2019-05-17T15:55:49.039Z,99607.94
2019-05-17T15:57:24.678Z,99615.86
2019-05-17T15:59:04.173Z,99599.39
2019-05-17T16:00:40.457Z,99601.38
2019-05-17T16:02:16.748Z,99605.34
2019-05-17T16:03:52.545Z,99605.45
2019-05-17T16:05:28.812Z,99601.95
2019-05-17T16:07:06.037Z,99609.06
2019-05-17T16:08:42.277Z,99606.83
2019-05-17T16:10:18.404Z,99597.44
2019-05-17T16:11:54.661Z,99594.42
2019-05-17T16:13:30.194Z,99591.02
2019-05-17T16:15:10.239Z,99602.23
2019-05-17T16:16:46.499Z,99597.69
2019-05-17T16:18:22.030Z,99595.47
2019-05-17T16:19:58.288Z,99593.58
2019-05-17T16:21:33.806Z,99596.73
2019-05-17T16:23:10.062Z,99599.30
2019-05-17T16:24:45.594Z,99596.84
2019-05-17T16:26:23.092Z,99593.55
2019-05-17T16:27:58.691Z,99596.14
2019-05-17T16:29:35.951Z,99592.50
2019-05-17T16:31:13.149Z,99591.20
2019-05-17T16:32:50.483Z,99587.09
2019-05-17T16:34:26.104Z,99585.70
2019-05-17T16:36:02.463Z,99585.45
2019-05-17T16:37:38.254Z,99580.20
2019-05-17T16:39:14.515Z,99578.55
2019-05-17T16:40:50.059Z,99588.95
2019-05-17T16:42:26.342Z,99575.88
2019-05-17T16:44:03.554Z,99584.30
2019-05-17T16:45:39.817Z,99583.35
2019-05-17T16:47:15.348Z,99584.16
2019-05-17T16:48:51.742Z,99580.55
2019-05-17T16:50:27.302Z,99571.55
2019-05-17T16:52:03.233Z,99579.14
2019-05-17T16:53:39.007Z,99579.95
2019-05-17T16:55:16.387Z,99574.13
2019-05-17T16:56:53.224Z,99569.93
2019-05-17T16:58:30.666Z,99574.13
2019-05-17T17:00:34.372Z,99577.50
2019-05-17T17:02:10.817Z,99580.65
2019-05-17T17:03:48.048Z,99566.67
2019-05-17T17:05:24.297Z,99568.42
2019-05-17T17:06:59.830Z,99580.78
2019-05-17T17:08:36.795Z,99578.64
2019-05-17T17:10:12.651Z,99574.08
2019-05-17T17:11:49.997Z,99576.98
2019-05-17T17:13:33.253Z,99573.45
2019-05-17T17:15:07.564Z,99573.23
2019-05-17T17:16:47.189Z,99577.65
2019-05-17T17:18:29.111Z,99578.59
2019-05-17T17:20:08.484Z,99576.34
2019-05-17T17:21:47.023Z,99580.55
2019-05-17T17:23:28.242Z,99580.89
2019-05-17T17:25:15.476Z,99576.55
2019-05-17T17:26:57.140Z,99578.89
2019-05-17T17:28:36.296Z,99580.85
2019-05-17T17:30:14.617Z,99578.39
2019-05-17T17:31:54.099Z,99583.78
2019-05-17T17:33:32.106Z,99580.14
2019-05-17T17:35:12.970Z,99575.94
2019-05-17T17:36:50.820Z,99586.80
2019-05-17T17:38:27.015Z,99584.34
2019-05-17T17:40:11.020Z,99581.55
2019-05-17T17:41:52.992Z,99585.18
2019-05-17T17:43:33.059Z,99585.50
2019-05-17T17:45:13.027Z,99580.59
2019-05-17T17:46:52.591Z,99586.78
2019-05-17T17:48:29.754Z,99577.30
2019-05-17T17:50:18.853Z,99583.48
2019-05-17T17:51:59.814Z,99570.98
2019-05-17T17:53:36.118Z,99576.19
2019-05-17T17:55:12.035Z,99571.38
2019-05-17T17:56:48.329Z,99574.86
2019-05-17T17:58:23.911Z,99570.17
2019-05-17T18:00:00.679Z,99574.47
2019-05-17T18:01:36.141Z,99574.56
2019-05-17T18:03:12.407Z,99574.41
2019-05-17T18:04:47.949Z,99568.66
2019-05-17T18:06:24.216Z,99567.11
2019-05-17T18:08:00.369Z,99575.95
2019-05-17T18:09:36.630Z,99572.50
2019-05-17T18:11:12.149Z,99572.56
2019-05-17T18:12:48.386Z,99568.05
2019-05-17T18:14:23.932Z,99578.96
2019-05-17T18:16:01.222Z,99568.52
2019-05-17T18:17:39.281Z,99573.83
2019-05-17T18:19:14.814Z,99581.34
2019-05-17T18:20:50.356Z,99570.42
2019-05-17T18:22:26.963Z,99570.81
2019-05-17T18:24:02.496Z,99574.54
2019-05-17T18:25:39.165Z,99577.42
2019-05-17T18:27:15.025Z,99583.10
2019-05-17T18:28:51.278Z,99589.59
2019-05-17T18:30:27.688Z,99583.27
2019-05-17T18:32:03.942Z,99584.73
2019-05-17T18:33:39.724Z,99584.00
2019-05-17T18:35:16.184Z,99585.80
2019-05-17T18:36:51.719Z,99582.27
2019-05-17T18:38:30.684Z,99587.14
2019-05-17T18:40:07.755Z,99588.03
2019-05-17T18:41:44.017Z,99594.38
2019-05-17T18:43:19.534Z,99591.42
2019-05-17T18:44:55.812Z,99590.44
2019-05-17T18:46:31.339Z,99594.12
2019-05-17T18:48:07.865Z,99591.41
2019-05-17T18:49:43.396Z,99594.30
2019-05-17T18:51:19.714Z,99597.75